createdAt,value
2023-01-23T00:01:29.138Z,6.80
2023-01-23T00:03:57.466Z,6.80
2023-01-23T00:06:25.364Z,6.80
2023-01-23T00:08:52.309Z,6.80
2023-01-23T00:11:27.095Z,6.80
2023-01-23T00:13:54.287Z,6.90
2023-01-23T00:16:25.092Z,6.90
2023-01-23T00:18:52.933Z,6.90
2023-01-23T00:21:23.980Z,6.90
2023-01-23T00:23:58.965Z,6.90
2023-01-23T00:26:29.132Z,6.90
2023-01-23T00:28:56.439Z,6.80
2023-01-23T00:31:26.687Z,6.80
2023-01-23T00:34:03.234Z,6.80
2023-01-23T00:36:35.009Z,6.90
2023-01-23T00:39:09.209Z,6.80
2023-01-23T00:41:36.110Z,6.80
2023-01-23T00:44:04.511Z,6.80
2023-01-23T00:46:31.467Z,6.80
2023-01-23T00:48:58.417Z,6.80
2023-01-23T00:51:25.746Z,6.80
2023-01-23T00:53:53.203Z,6.90
2023-01-23T00:56:20.118Z,6.90
2023-01-23T00:58:47.368Z,6.90
2023-01-23T01:01:16.091Z,6.90
2023-01-23T01:03:44.543Z,6.90
2023-01-23T01:06:12.552Z,6.90
2023-01-23T01:08:39.561Z,6.90
2023-01-23T01:11:06.947Z,6.90
2023-01-23T01:13:34.184Z,6.90
2023-01-23T01:16:02.118Z,6.90
2023-01-23T01:18:29.908Z,6.90
2023-01-23T01:20:58.453Z,6.90
2023-01-23T01:23:26.650Z,6.90
2023-01-23T01:25:54.707Z,6.90
2023-01-23T01:28:21.590Z,6.90
2023-01-23T01:30:48.539Z,6.90
2023-01-23T01:33:15.480Z,6.90
2023-01-23T01:35:42.457Z,6.90
2023-01-23T01:38:09.553Z,6.90
2023-01-23T01:40:37.621Z,6.90
2023-01-23T01:43:18.548Z,6.90
2023-01-23T01:46:29.088Z,6.90
2023-01-23T01:49:09.586Z,6.90
2023-01-23T01:51:52.327Z,6.90
2023-01-23T01:54:44.293Z,6.90
2023-01-23T01:57:27.284Z,6.90
2023-01-23T02:00:15.786Z,6.80
2023-01-23T02:02:55.779Z,6.80
2023-01-23T02:05:27.846Z,6.80
2023-01-23T02:08:27.589Z,6.80
2023-01-23T02:10:54.690Z,6.80
2023-01-23T02:13:30.463Z,6.80
2023-01-23T02:16:00.298Z,6.80
2023-01-23T02:18:29.793Z,6.80
2023-01-23T02:21:01.020Z,6.80
2023-01-23T02:24:01.783Z,6.80
2023-01-23T02:26:38.210Z,6.80
2023-01-23T02:29:06.463Z,6.90
2023-01-23T02:31:44.282Z,6.80
2023-01-23T02:34:13.885Z,6.80
2023-01-23T02:36:45.630Z,6.80
2023-01-23T02:39:16.815Z,6.80
2023-01-23T02:41:50.391Z,6.80
2023-01-23T02:44:29.143Z,6.80
2023-01-23T02:47:08.011Z,6.80
2023-01-23T02:49:35.223Z,6.80
2023-01-23T02:52:06.056Z,6.80
2023-01-23T02:57:15.930Z,6.80
2023-01-23T03:00:01.420Z,6.80
2023-01-23T03:02:28.819Z,6.80
2023-01-23T03:04:55.741Z,6.70
2023-01-23T03:07:22.699Z,6.70
2023-01-23T03:09:49.879Z,6.70
2023-01-23T03:12:16.817Z,6.70
2023-01-23T03:14:43.680Z,6.80
2023-01-23T03:17:14.723Z,6.70
2023-01-23T03:19:42.033Z,6.70
2023-01-23T03:22:08.960Z,6.70
2023-01-23T03:24:35.850Z,6.70
2023-01-23T03:27:03.671Z,6.70
2023-01-23T03:29:55.713Z,6.70
2023-01-23T03:32:22.998Z,6.70
2023-01-23T03:34:49.920Z,6.70
2023-01-23T03:37:19.572Z,6.70
2023-01-23T03:40:05.613Z,6.70
2023-01-23T03:42:36.181Z,6.60
2023-01-23T03:45:05.365Z,6.60
2023-01-23T03:47:36.267Z,6.60
2023-01-23T03:50:03.499Z,6.60
2023-01-23T03:52:37.858Z,6.60
2023-01-23T03:55:05.667Z,6.60
2023-01-23T03:57:33.048Z,6.60
2023-01-23T03:59:59.919Z,6.60
2023-01-23T04:02:41.121Z,6.60
2023-01-23T04:05:10.637Z,6.60
2023-01-23T04:07:38.490Z,6.60
2023-01-23T04:10:05.593Z,6.60
2023-01-23T04:12:32.512Z,6.60
2023-01-23T04:15:01.032Z,6.50
2023-01-23T04:17:28.623Z,6.50
2023-01-23T04:19:55.499Z,6.60
2023-01-23T04:22:22.446Z,6.50
2023-01-23T04:24:50.810Z,6.50
2023-01-23T04:27:17.780Z,6.50
2023-01-23T04:29:47.784Z,6.50
2023-01-23T04:32:14.854Z,6.50
2023-01-23T04:34:45.783Z,6.50
2023-01-23T04:37:12.864Z,6.50
2023-01-23T04:39:40.549Z,6.50
2023-01-23T04:42:07.485Z,6.60
2023-01-23T04:44:48.207Z,6.50
2023-01-23T04:47:49.833Z,6.50
2023-01-23T04:50:17.507Z,6.50
2023-01-23T04:52:46.423Z,6.50
2023-01-23T04:55:13.926Z,6.60
2023-01-23T04:57:42.856Z,6.60
2023-01-23T05:00:18.673Z,6.60
2023-01-23T05:02:48.313Z,6.60
2023-01-23T05:05:18.019Z,6.50
2023-01-23T05:07:45.183Z,6.60
2023-01-23T05:10:16.033Z,6.50
2023-01-23T05:12:43.790Z,6.50
2023-01-23T05:15:11.703Z,6.50
2023-01-23T05:17:41.183Z,6.50
2023-01-23T05:20:11.524Z,6.50
2023-01-23T05:22:52.065Z,6.50
2023-01-23T05:25:27.436Z,6.50
2023-01-23T05:27:56.310Z,6.50
2023-01-23T05:30:24.327Z,6.50
2023-01-23T05:32:57.039Z,6.50
2023-01-23T05:35:24.487Z,6.50
2023-01-23T05:37:53.446Z,6.40
2023-01-23T05:40:23.904Z,6.40
2023-01-23T05:43:22.890Z,6.40
2023-01-23T05:46:13.043Z,6.40
2023-01-23T05:48:51.993Z,6.40
2023-01-23T05:51:20.794Z,6.30
2023-01-23T05:53:48.266Z,6.30
2023-01-23T05:56:16.891Z,6.30
2023-01-23T05:59:05.310Z,6.30
2023-01-23T06:01:50.762Z,6.20
2023-01-23T06:04:36.013Z,6.20
2023-01-23T06:07:20.753Z,6.20
2023-01-23T06:09:52.593Z,6.20
2023-01-23T06:12:20.091Z,6.20
2023-01-23T06:14:48.109Z,6.20
2023-01-23T06:17:15.642Z,6.20
2023-01-23T06:19:43.183Z,6.20
2023-01-23T06:22:11.047Z,6.10
2023-01-23T06:24:56.060Z,6.10
2023-01-23T06:27:22.989Z,6.10
2023-01-23T06:29:51.833Z,6.10
2023-01-23T06:32:18.770Z,6.10
2023-01-23T06:34:45.813Z,6.20
2023-01-23T06:37:12.724Z,6.10
2023-01-23T06:39:43.169Z,6.20
2023-01-23T06:42:11.269Z,6.20
2023-01-23T06:44:43.381Z,6.20
2023-01-23T06:47:11.343Z,6.20
2023-01-23T06:49:39.404Z,6.20
2023-01-23T06:52:06.716Z,6.20
2023-01-23T06:54:33.701Z,6.20
2023-01-23T06:57:04.565Z,6.20
2023-01-23T06:59:32.382Z,6.20
2023-01-23T07:02:00.550Z,6.20
2023-01-23T07:04:39.574Z,6.20
2023-01-23T07:07:06.609Z,6.20
2023-01-23T07:09:34.296Z,6.20
2023-01-23T07:12:09.729Z,6.20
2023-01-23T07:14:36.673Z,6.20
2023-01-23T07:17:03.803Z,6.20
2023-01-23T07:19:31.688Z,6.20
2023-01-23T07:22:01.185Z,6.20
2023-01-23T07:24:29.992Z,6.30
2023-01-23T07:26:56.889Z,6.20
2023-01-23T07:29:23.958Z,6.20
2023-01-23T07:31:50.910Z,6.30
2023-01-23T07:34:17.841Z,6.20
2023-01-23T07:36:44.756Z,6.20
2023-01-23T07:39:11.658Z,6.30
2023-01-23T07:41:40.257Z,6.30
2023-01-23T07:44:17.499Z,6.30
2023-01-23T07:46:45.719Z,6.30
2023-01-23T07:49:13.358Z,6.30
2023-01-23T07:51:40.804Z,6.40
2023-01-23T07:54:07.879Z,6.40
2023-01-23T07:56:34.841Z,6.40
2023-01-23T07:59:01.775Z,6.40
2023-01-23T08:01:28.680Z,6.40
2023-01-23T08:03:55.630Z,6.40
2023-01-23T08:06:22.683Z,6.40
2023-01-23T08:08:49.901Z,6.40
2023-01-23T08:11:17.039Z,6.40
2023-01-23T08:13:43.940Z,6.40
2023-01-23T08:16:13.426Z,6.50
2023-01-23T08:18:40.607Z,6.50
2023-01-23T08:21:07.498Z,6.50
2023-01-23T08:23:35.157Z,6.50
2023-01-23T08:26:05.818Z,6.50
2023-01-23T08:28:33.135Z,6.50
2023-01-23T08:31:10.398Z,6.50
2023-01-23T08:33:38.777Z,6.60
2023-01-23T08:36:09.515Z,6.60
2023-01-23T08:38:37.953Z,6.60
2023-01-23T08:41:05.929Z,6.60
2023-01-23T08:43:35.858Z,6.60
2023-01-23T08:46:02.770Z,6.60
2023-01-23T08:48:29.728Z,6.60
2023-01-23T08:51:08.357Z,6.60
2023-01-23T08:53:35.844Z,6.70
2023-01-23T08:56:17.391Z,6.70
2023-01-23T08:58:45.574Z,6.70
2023-01-23T09:01:24.615Z,6.70
2023-01-23T09:03:51.817Z,6.70
2023-01-23T09:06:20.935Z,6.70
2023-01-23T09:08:48.475Z,6.70
2023-01-23T09:11:15.929Z,6.70
2023-01-23T09:13:42.969Z,6.70
2023-01-23T09:16:10.258Z,6.70
2023-01-23T09:18:37.828Z,6.70
2023-01-23T09:21:11.920Z,6.80
2023-01-23T09:23:39.241Z,6.80
2023-01-23T09:26:11.663Z,6.80
2023-01-23T09:28:42.438Z,6.90
2023-01-23T09:31:13.762Z,6.90
2023-01-23T09:33:41.205Z,6.90
2023-01-23T09:36:09.110Z,7.00
2023-01-23T09:38:36.594Z,7.00
2023-01-23T09:41:20.528Z,7.00
2023-01-23T09:43:57.859Z,7.00
2023-01-23T09:46:50.600Z,7.00
2023-01-23T09:49:37.925Z,7.00
2023-01-23T09:52:29.278Z,7.00
2023-01-23T09:55:19.142Z,7.10
2023-01-23T09:57:55.728Z,7.10
2023-01-23T10:00:32.060Z,7.10
2023-01-23T10:03:02.806Z,7.10
2023-01-23T10:06:04.885Z,7.10
2023-01-23T10:09:04.961Z,7.10
2023-01-23T10:12:22.201Z,7.10
2023-01-23T10:15:27.418Z,7.10
2023-01-23T10:18:39.513Z,7.20
2023-01-23T10:21:39.334Z,7.20
2023-01-23T10:24:28.814Z,7.20
2023-01-23T10:27:18.814Z,7.20
2023-01-23T10:30:19.661Z,7.20
2023-01-23T10:32:52.010Z,7.20
2023-01-23T10:35:24.574Z,7.20
2023-01-23T10:38:36.215Z,7.20
2023-01-23T10:41:15.817Z,7.30
2023-01-23T10:43:53.692Z,7.30
2023-01-23T10:46:29.163Z,7.30
2023-01-23T10:48:56.665Z,7.30
2023-01-23T10:51:37.099Z,7.30
2023-01-23T10:54:31.426Z,7.30
2023-01-23T10:57:30.384Z,7.30
2023-01-23T11:00:24.903Z,7.40
2023-01-23T11:02:51.864Z,7.40
2023-01-23T11:05:52.181Z,7.40
2023-01-23T11:08:39.363Z,7.40
2023-01-23T11:11:15.343Z,7.40
2023-01-23T11:13:44.834Z,7.50
2023-01-23T11:16:21.382Z,7.40
2023-01-23T11:19:05.228Z,7.50
2023-01-23T11:21:38.012Z,7.50
2023-01-23T11:24:41.041Z,7.50
2023-01-23T11:27:30.969Z,7.50
2023-01-23T11:30:09.431Z,7.50
2023-01-23T11:32:49.663Z,7.50
2023-01-23T11:35:25.352Z,7.50
2023-01-23T11:37:55.709Z,7.50
2023-01-23T11:40:22.744Z,7.50
2023-01-23T11:42:49.798Z,7.50
2023-01-23T11:46:05.560Z,7.50
2023-01-23T11:49:03.673Z,7.50
2023-01-23T11:52:20.536Z,7.50
2023-01-23T11:55:02.689Z,7.40
2023-01-23T11:57:37.327Z,7.40
2023-01-23T12:00:37.502Z,7.40
2023-01-23T12:03:55.202Z,7.40
2023-01-23T12:06:58.880Z,7.40
2023-01-23T12:09:38.971Z,7.50
2023-01-23T12:12:59.111Z,7.50
2023-01-23T12:15:44.619Z,7.50
2023-01-23T12:18:21.972Z,7.50
2023-01-23T12:21:32.726Z,7.50
2023-01-23T12:24:40.050Z,7.50
2023-01-23T12:27:34.321Z,7.50
2023-01-23T12:30:22.506Z,7.50
2023-01-23T12:33:12.276Z,7.50
2023-01-23T12:35:47.214Z,7.50
2023-01-23T12:38:34.715Z,7.50
2023-01-23T12:41:26.276Z,7.60
2023-01-23T12:44:04.801Z,7.60
2023-01-23T12:46:39.986Z,7.60
2023-01-23T12:49:30.700Z,7.60
2023-01-23T12:52:09.229Z,7.60
2023-01-23T12:54:44.224Z,7.60
2023-01-23T12:57:13.314Z,7.60
2023-01-23T13:00:02.291Z,7.60
2023-01-23T13:02:40.653Z,7.60
2023-01-23T13:05:21.370Z,7.60
2023-01-23T13:08:38.422Z,7.60
2023-01-23T13:11:48.526Z,7.60
2023-01-23T13:15:00.645Z,7.60
2023-01-23T13:17:36.823Z,7.60
2023-01-23T13:21:12.715Z,7.60
2023-01-23T13:23:39.649Z,7.60
2023-01-23T13:26:15.604Z,7.60
2023-01-23T13:28:50.368Z,7.60
2023-01-23T13:31:47.151Z,7.50
2023-01-23T13:34:17.181Z,7.50
2023-01-23T13:36:53.088Z,7.50
2023-01-23T13:39:29.674Z,7.50
2023-01-23T13:42:14.802Z,7.50
2023-01-23T13:45:20.792Z,7.50
2023-01-23T14:22:20.328Z,7.50
2023-01-23T14:24:50.519Z,7.50
2023-01-23T14:27:51.410Z,7.50
2023-01-23T14:30:29.091Z,7.50
2023-01-23T14:32:56.421Z,7.50
2023-01-23T14:35:32.181Z,7.50
2023-01-23T14:38:06.787Z,7.50
2023-01-23T14:40:47.061Z,7.50
2023-01-23T14:43:23.702Z,7.40
2023-01-23T14:46:04.425Z,7.40
2023-01-23T14:48:38.055Z,7.40
2023-01-23T14:51:19.829Z,7.40
2023-01-23T14:54:03.367Z,7.40
2023-01-23T14:56:35.738Z,7.40
2023-01-23T14:59:06.805Z,7.40
2023-01-23T15:01:35.937Z,7.40
2023-01-23T15:04:20.317Z,7.40
2023-01-23T15:06:59.222Z,7.30
2023-01-23T15:09:41.545Z,7.30
2023-01-23T15:12:16.905Z,7.30
2023-01-23T15:14:44.782Z,7.30
2023-01-23T15:17:20.003Z,7.20
2023-01-23T15:19:55.498Z,7.20
2023-01-23T15:22:28.698Z,7.20
2023-01-23T15:24:55.971Z,7.10
2023-01-23T15:27:33.903Z,7.10
2023-01-23T15:30:39.662Z,7.10
2023-01-23T15:33:31.450Z,7.00
2023-01-23T15:36:27.273Z,7.00
2023-01-23T15:38:56.851Z,7.00
2023-01-23T15:41:44.416Z,7.00
2023-01-23T15:44:18.023Z,7.00
2023-01-23T15:46:45.197Z,7.00
2023-01-23T15:49:24.513Z,7.00
2023-01-23T15:51:55.049Z,6.90
2023-01-23T15:54:29.248Z,6.90
2023-01-23T15:57:07.058Z,6.90
2023-01-23T15:59:36.749Z,6.90
2023-01-23T16:02:05.934Z,6.90
2023-01-23T16:04:33.750Z,6.90
2023-01-23T16:07:07.048Z,6.90
2023-01-23T16:09:37.142Z,6.90
2023-01-23T16:12:04.600Z,6.90
2023-01-23T16:14:31.515Z,6.90
2023-01-23T16:17:11.346Z,6.90
2023-01-23T16:19:42.356Z,6.90
2023-01-23T16:22:14.762Z,6.90
2023-01-23T16:24:42.405Z,6.90
2023-01-23T16:27:17.925Z,6.90
2023-01-23T16:29:45.503Z,6.90
2023-01-23T16:32:12.532Z,6.90
2023-01-23T16:34:39.493Z,6.90
2023-01-23T16:37:14.873Z,6.90
2023-01-23T16:39:43.849Z,6.90
2023-01-23T16:42:24.983Z,6.90
2023-01-23T16:44:52.122Z,6.90
2023-01-23T16:47:19.297Z,6.90
2023-01-23T16:49:52.546Z,6.90
2023-01-23T16:52:24.050Z,6.90
2023-01-23T16:54:53.810Z,6.90
2023-01-23T16:57:21.412Z,6.90
2023-01-23T16:59:50.361Z,6.90
2023-01-23T17:02:29.713Z,7.00
2023-01-23T17:04:56.703Z,7.00
2023-01-23T17:07:23.609Z,7.00
2023-01-23T17:09:51.722Z,7.00
2023-01-23T17:12:27.742Z,7.00
2023-01-23T17:14:56.014Z,7.00
2023-01-23T17:17:33.412Z,7.00
2023-01-23T17:20:01.923Z,7.00
2023-01-23T17:22:30.768Z,7.00
2023-01-23T17:24:57.696Z,7.00
2023-01-23T17:27:24.618Z,6.90
2023-01-23T17:29:51.542Z,6.90
2023-01-23T17:32:32.550Z,6.90
2023-01-23T17:35:02.753Z,6.90
2023-01-23T17:37:30.234Z,6.80
2023-01-23T17:39:57.117Z,6.80
2023-01-23T17:42:24.002Z,6.80
2023-01-23T17:44:50.878Z,6.80
2023-01-23T17:47:18.535Z,6.70
2023-01-23T17:49:57.126Z,6.80
2023-01-23T17:52:25.067Z,6.80
2023-01-23T17:54:52.016Z,6.70
2023-01-23T17:57:18.881Z,6.70
2023-01-23T17:59:45.789Z,6.70
2023-01-23T18:02:28.109Z,6.70
2023-01-23T18:04:55.533Z,6.70
2023-01-23T18:07:22.424Z,6.70
2023-01-23T18:09:49.319Z,6.60
2023-01-23T18:12:37.767Z,6.70
2023-01-23T18:15:43.231Z,6.60
2023-01-23T18:18:29.606Z,6.60
2023-01-23T18:20:58.134Z,6.70
2023-01-23T18:23:27.873Z,6.60
2023-01-23T18:26:44.625Z,6.60
2023-01-23T18:29:40.695Z,6.70
2023-01-23T18:32:24.154Z,6.70
2023-01-23T18:35:19.906Z,6.70
2023-01-23T18:38:05.406Z,6.60
2023-01-23T18:41:12.567Z,6.60
2023-01-23T18:43:43.742Z,6.60
2023-01-23T18:46:17.188Z,6.60
2023-01-23T18:48:45.873Z,6.60
2023-01-23T18:51:34.207Z,6.60
2023-01-23T18:54:20.957Z,6.60
2023-01-23T18:57:22.268Z,6.60
2023-01-23T19:00:16.950Z,6.60
2023-01-23T19:02:52.379Z,6.60
2023-01-23T19:05:27.887Z,6.60
2023-01-23T19:07:55.598Z,6.60
2023-01-23T19:10:25.585Z,6.60
2023-01-23T19:13:16.661Z,6.60
2023-01-23T19:16:06.322Z,6.60
2023-01-23T19:18:47.652Z,6.60
2023-01-23T19:21:26.723Z,6.60
2023-01-23T19:24:06.850Z,6.50
2023-01-23T19:26:37.704Z,6.50
2023-01-23T19:29:20.345Z,6.50
2023-01-23T19:32:02.923Z,6.50
2023-01-23T19:34:31.504Z,6.40
2023-01-23T19:36:58.407Z,6.50
2023-01-23T19:39:25.301Z,6.40
2023-01-23T19:41:53.295Z,6.40
2023-01-23T19:44:24.045Z,6.40
2023-01-23T19:46:52.125Z,6.40
2023-01-23T19:49:19.179Z,6.40
2023-01-23T19:51:46.648Z,6.30
2023-01-23T19:54:15.189Z,6.30
2023-01-23T19:56:42.598Z,6.30
2023-01-23T19:59:10.050Z,6.30
2023-01-23T20:01:49.971Z,6.30
2023-01-23T20:04:23.495Z,6.30
2023-01-23T20:06:53.923Z,6.30
2023-01-23T20:09:21.858Z,6.30
2023-01-23T20:11:49.238Z,6.20
2023-01-23T20:14:16.169Z,6.20
2023-01-23T20:16:43.594Z,6.30
2023-01-23T20:19:14.526Z,6.20
2023-01-23T20:21:41.413Z,6.20
2023-01-23T20:24:08.509Z,6.20
2023-01-23T20:26:36.182Z,6.30
2023-01-23T20:29:03.984Z,6.30
2023-01-23T20:31:31.775Z,6.30
2023-01-23T20:33:58.788Z,6.20
2023-01-23T20:36:25.745Z,6.20
2023-01-23T20:38:52.640Z,6.20
2023-01-23T20:41:20.860Z,6.20
2023-01-23T20:43:48.165Z,6.20
2023-01-23T20:46:16.482Z,6.20
2023-01-23T20:48:44.989Z,6.20
2023-01-23T20:51:14.086Z,6.20
2023-01-23T20:53:41.455Z,6.20
2023-01-23T20:56:14.991Z,6.20
2023-01-23T20:59:06.641Z,6.20
2023-01-23T21:01:54.555Z,6.20
2023-01-23T21:04:23.375Z,6.10
2023-01-23T21:06:50.291Z,6.20
2023-01-23T21:09:17.546Z,6.20
2023-01-23T21:11:44.679Z,6.20
2023-01-23T21:14:12.830Z,6.20
2023-01-23T21:16:39.864Z,6.10
2023-01-23T21:19:06.730Z,6.20
2023-01-23T21:21:33.663Z,6.20
2023-01-23T21:24:00.576Z,6.20
2023-01-23T21:26:28.962Z,6.10
2023-01-23T21:28:57.643Z,6.10
2023-01-23T21:31:29.837Z,6.10
2023-01-23T21:34:03.072Z,6.10
2023-01-23T21:36:30.067Z,6.10
2023-01-23T21:38:57.574Z,6.10
2023-01-23T21:41:24.445Z,6.00
2023-01-23T21:43:51.323Z,6.00
2023-01-23T21:46:18.293Z,6.00
2023-01-23T21:48:45.243Z,6.00
2023-01-23T21:51:18.438Z,6.00
2023-01-23T21:53:49.015Z,5.90
2023-01-23T21:56:19.244Z,5.90
2023-01-23T21:58:49.362Z,5.90
2023-01-23T22:01:32.565Z,5.90
2023-01-23T22:04:22.500Z,5.90
2023-01-23T22:06:54.921Z,5.90
2023-01-23T22:09:27.437Z,5.90
2023-01-23T22:11:55.639Z,5.90
2023-01-23T22:14:22.736Z,5.90
2023-01-23T22:16:50.912Z,5.90
2023-01-23T22:19:24.944Z,5.90
2023-01-23T22:21:54.261Z,5.90
2023-01-23T22:24:21.301Z,5.90
2023-01-23T22:26:48.250Z,5.90
2023-01-23T22:29:15.354Z,5.80
2023-01-23T22:31:42.573Z,5.80
2023-01-23T22:34:10.102Z,5.90
2023-01-23T22:36:37.130Z,5.80
2023-01-23T22:39:04.407Z,5.80
2023-01-23T22:41:31.305Z,5.80
2023-01-23T22:43:59.382Z,5.80
2023-01-23T22:46:27.195Z,5.80
2023-01-23T22:48:54.151Z,5.80
2023-01-23T22:51:25.461Z,5.80
2023-01-23T22:53:54.080Z,5.80
2023-01-23T22:56:22.219Z,5.80
2023-01-23T22:58:50.956Z,5.80
2023-01-23T23:01:19.126Z,5.80
2023-01-23T23:03:46.276Z,5.80
2023-01-23T23:06:16.745Z,5.80
2023-01-23T23:08:47.278Z,5.80
2023-01-23T23:11:27.632Z,5.80
2023-01-23T23:13:56.586Z,5.80
2023-01-23T23:16:30.883Z,5.80
2023-01-23T23:19:00.909Z,5.80
2023-01-23T23:21:33.640Z,5.80
2023-01-23T23:24:01.533Z,5.80
2023-01-23T23:26:31.260Z,5.80
2023-01-23T23:28:59.959Z,5.80
2023-01-23T23:31:27.245Z,5.80
2023-01-23T23:33:54.352Z,5.80
2023-01-23T23:36:21.233Z,5.80
2023-01-23T23:38:48.183Z,5.80
2023-01-23T23:41:16.833Z,5.80
2023-01-23T23:43:44.602Z,5.80
2023-01-23T23:46:13.567Z,5.80
2023-01-23T23:48:41.597Z,5.80
2023-01-23T23:51:12.562Z,5.80
2023-01-23T23:53:39.599Z,5.80
2023-01-23T23:56:07.146Z,5.80
2023-01-23T23:58:37.458Z,5.80
